Home > Products > Valid Products > OSO

000
SXUS56 KLOX 010050
OSOLOX

OFFSHORE OIL PLATFORM IRENE WEATHER
NATIONAL WEATHER SERVICE OXNARD CA
550 PM PDT SUN AUG 31 2014

OBSERVATION FROM DRILLING RIG "IRENE"
LOCATION 34 DEG 37 MIN N...120 DEG 44 MIN W...30 MILES SW
OF SANTA MARIA...ANEMOMETER LOCATED 305 FEET ABOVE SEA LEVEL.

SPECI 010045Z 33020KT 10SM SKC 18/17 A2984 RMKS SEAS 4 TO 6 FEET

$$











000
SXUS56 KLOX 010050
OSOLOX

OFFSHORE OIL PLATFORM IRENE WEATHER
NATIONAL WEATHER SERVICE OXNARD CA
550 PM PDT SUN AUG 31 2014

OBSERVATION FROM DRILLING RIG "IRENE"
LOCATION 34 DEG 37 MIN N...120 DEG 44 MIN W...30 MILES SW
OF SANTA MARIA...ANEMOMETER LOCATED 305 FEET ABOVE SEA LEVEL.

SPECI 010045Z 33020KT 10SM SKC 18/17 A2984 RMKS SEAS 4 TO 6 FEET

$$










000
SXUS56 KLOX 312150
OSOLOX

OFFSHORE OIL PLATFORM IRENE WEATHER
NATIONAL WEATHER SERVICE OXNARD CA
245 PM PDT SUN AUG 31 2014

OBSERVATION FROM DRILLING RIG "IRENE"
LOCATION 34 DEG 37 MIN N...120 DEG 44 MIN W...30 MILES SW
OF SANTA MARIA...ANEMOMETER LOCATED 305 FEET ABOVE SEA LEVEL.

SPECI 312145Z 32017KT 10SM SKC 18/16 A2989 RMKS SEAS 2 TO 4 FEET

$$








000
SXUS56 KLOX 312150
OSOLOX

OFFSHORE OIL PLATFORM IRENE WEATHER
NATIONAL WEATHER SERVICE OXNARD CA
245 PM PDT SUN AUG 31 2014

OBSERVATION FROM DRILLING RIG "IRENE"
LOCATION 34 DEG 37 MIN N...120 DEG 44 MIN W...30 MILES SW
OF SANTA MARIA...ANEMOMETER LOCATED 305 FEET ABOVE SEA LEVEL.

SPECI 312145Z 32017KT 10SM SKC 18/16 A2989 RMKS SEAS 2 TO 4 FEET

$$







000
SXUS56 KLOX 311535
OSOLOX

OFFSHORE OIL PLATFORM IRENE WEATHER
NATIONAL WEATHER SERVICE OXNARD CA
835 AM PDT SUN AUG 31 2014

OBSERVATION FROM DRILLING RIG "IRENE"
LOCATION 34 DEG 37 MIN N...120 DEG 44 MIN W...30 MILES SW
OF SANTA MARIA...ANEMOMETER LOCATED 305 FEET ABOVE SEA LEVEL.

SPECI 311526Z 34015KT 10SM SKC 18/16 A2989 RMKS SEAS 2 TO 4 FEET

$$





































































































































































































































000
SXUS56 KLOX 311535
OSOLOX

OFFSHORE OIL PLATFORM IRENE WEATHER
NATIONAL WEATHER SERVICE OXNARD CA
835 AM PDT SUN AUG 31 2014

OBSERVATION FROM DRILLING RIG "IRENE"
LOCATION 34 DEG 37 MIN N...120 DEG 44 MIN W...30 MILES SW
OF SANTA MARIA...ANEMOMETER LOCATED 305 FEET ABOVE SEA LEVEL.

SPECI 311526Z 34015KT 10SM SKC 18/16 A2989 RMKS SEAS 2 TO 4 FEET

$$






































































































































































































































000
SXUS56 KLOX 302042
OSOLOX

OFFSHORE OIL PLATFORM IRENE WEATHER
NATIONAL WEATHER SERVICE OXNARD CA
142 PM PDT SAT AUG 30 2014

OBSERVATION FROM DRILLING RIG "IRENE"
LOCATION 34 DEG 37 MIN N...120 DEG 44 MIN W...30 MILES SW
OF SANTA MARIA...ANEMOMETER LOCATED 305 FEET ABOVE SEA LEVEL.

SPECI 302036Z 32015KT 10SM SKC 19/17 A2986 RMKS SEAS 2 TO 4 FEET

$$








































































































































































































































000
SXUS56 KLOX 302042
OSOLOX

OFFSHORE OIL PLATFORM IRENE WEATHER
NATIONAL WEATHER SERVICE OXNARD CA
142 PM PDT SAT AUG 30 2014

OBSERVATION FROM DRILLING RIG "IRENE"
LOCATION 34 DEG 37 MIN N...120 DEG 44 MIN W...30 MILES SW
OF SANTA MARIA...ANEMOMETER LOCATED 305 FEET ABOVE SEA LEVEL.

SPECI 302036Z 32015KT 10SM SKC 19/17 A2986 RMKS SEAS 2 TO 4 FEET

$$







































































































































































































































    US Dept of Commerce
    National Oceanic and Atmospheric Administration
    National Weather Service
    1325 East West Highway
    Silver Spring, MD 20910
    Page Author: NWS Internet Services Team
Disclaimer
Information Quality
Credits
Glossary
Privacy Policy
Freedom of Information Act (FOIA)
About Us
Career Opportunities